Archival Weather

Chicago O'Hare International

Chicago, Illinois (KORD)

Report from: Wednesday, July 19, 2023 6:51 AM CDT
Current time: Tuesday, July 16, 2024 3:33 AM CDT

Current weather – Weather history – Daily summaries
Weather forecast

Temperature20.0°C (68.0°F)
Dew point13.9°C (57.0°F)
Winds Calm
Visibility10 mi. (16.1 km)
Clouds Few clouds 25,000 ft. (7,620 m)
Altimeter30.05 in.Hg (1018 mB)
Relative humidity68 %
Density altitude676 ft. (206 m)
Sea-level pressure101.7 kPa (1017 mB, 30.04 in.Hg)
Max temp last 6 hours20.0°C (68.0°F)
Min temp last 6 hours17.2°C (63.0°F)
Remarks System requires maintenance
Automated weather observing station with precipitation discriminator
Pressure rising more quickly
Flight conditions Visual Meteorological Conditions
Raw dataKORD 191151Z 00000KT 10SM FEW250 20/14 A3005 RMK AO2 SLP171 T02000139 10200 20172 53008 $
An error has occurred. This application may no longer respond until reloaded. Reload 🗙